sensor_id;sensor_type;location;lat;lon;timestamp;P1;durP1;ratioP1;P2;durP2;ratioP2
2225;SDS011;1119;48.288;8.726;2022-07-11T00:01:23;3.80;;;3.60;;
2225;SDS011;1119;48.288;8.726;2022-07-11T00:03:50;4.00;;;3.80;;
2225;SDS011;1119;48.288;8.726;2022-07-11T00:06:17;4.97;;;4.60;;
2225;SDS011;1119;48.288;8.726;2022-07-11T00:08:44;11.43;;;4.20;;
2225;SDS011;1119;48.288;8.726;2022-07-11T00:11:12;6.00;;;3.60;;
2225;SDS011;1119;48.288;8.726;2022-07-11T00:13:39;4.37;;;3.90;;
2225;SDS011;1119;48.288;8.726;2022-07-11T00:16:07;3.97;;;3.77;;
2225;SDS011;1119;48.288;8.726;2022-07-11T00:18:34;4.67;;;4.30;;
2225;SDS011;1119;48.288;8.726;2022-07-11T00:21:01;4.33;;;4.00;;
2225;SDS011;1119;48.288;8.726;2022-07-11T00:23:29;4.17;;;3.97;;
2225;SDS011;1119;48.288;8.726;2022-07-11T00:25:56;3.70;;;3.50;;
2225;SDS011;1119;48.288;8.726;2022-07-11T00:28:23;4.57;;;4.37;;
2225;SDS011;1119;48.288;8.726;2022-07-11T00:30:50;4.40;;;3.30;;
2225;SDS011;1119;48.288;8.726;2022-07-11T00:33:19;8.53;;;4.77;;
2225;SDS011;1119;48.288;8.726;2022-07-11T00:35:46;5.80;;;5.10;;
2225;SDS011;1119;48.288;8.726;2022-07-11T00:38:14;4.77;;;4.47;;
2225;SDS011;1119;48.288;8.726;2022-07-11T00:40:41;4.10;;;3.80;;
2225;SDS011;1119;48.288;8.726;2022-07-11T00:43:08;3.87;;;3.70;;
2225;SDS011;1119;48.288;8.726;2022-07-11T00:45:36;5.10;;;4.37;;
2225;SDS011;1119;48.288;8.726;2022-07-11T00:48:03;3.90;;;3.60;;
2225;SDS011;1119;48.288;8.726;2022-07-11T00:50:32;4.07;;;3.70;;
2225;SDS011;1119;48.288;8.726;2022-07-11T00:52:59;3.33;;;3.23;;
2225;SDS011;1119;48.288;8.726;2022-07-11T00:55:26;4.03;;;3.73;;
2225;SDS011;1119;48.288;8.726;2022-07-11T00:57:54;4.30;;;4.10;;
2225;SDS011;1119;48.288;8.726;2022-07-11T01:00:21;4.67;;;4.20;;
2225;SDS011;1119;48.288;8.726;2022-07-11T01:02:49;4.20;;;4.00;;
2225;SDS011;1119;48.288;8.726;2022-07-11T01:05:16;3.60;;;3.40;;
2225;SDS011;1119;48.288;8.726;2022-07-11T01:07:44;4.13;;;3.93;;
2225;SDS011;1119;48.288;8.726;2022-07-11T01:10:11;3.83;;;3.57;;
2225;SDS011;1119;48.288;8.726;2022-07-11T01:12:38;5.17;;;3.73;;
2225;SDS011;1119;48.288;8.726;2022-07-11T01:15:05;4.33;;;3.97;;
2225;SDS011;1119;48.288;8.726;2022-07-11T01:17:33;4.10;;;3.80;;
2225;SDS011;1119;48.288;8.726;2022-07-11T01:20:00;4.60;;;4.30;;
2225;SDS011;1119;48.288;8.726;2022-07-11T01:22:28;4.53;;;4.30;;
2225;SDS011;1119;48.288;8.726;2022-07-11T01:24:59;3.53;;;3.30;;
2225;SDS011;1119;48.288;8.726;2022-07-11T01:27:26;4.17;;;3.90;;
2225;SDS011;1119;48.288;8.726;2022-07-11T01:29:54;4.40;;;4.20;;
2225;SDS011;1119;48.288;8.726;2022-07-11T01:32:21;4.00;;;3.83;;
2225;SDS011;1119;48.288;8.726;2022-07-11T01:34:48;4.50;;;4.10;;
2225;SDS011;1119;48.288;8.726;2022-07-11T01:37:16;4.83;;;4.63;;
2225;SDS011;1119;48.288;8.726;2022-07-11T01:39:43;7.37;;;4.10;;
2225;SDS011;1119;48.288;8.726;2022-07-11T01:42:11;5.00;;;4.80;;
2225;SDS011;1119;48.288;8.726;2022-07-11T01:44:38;4.60;;;4.30;;
2225;SDS011;1119;48.288;8.726;2022-07-11T01:47:05;3.97;;;3.53;;
2225;SDS011;1119;48.288;8.726;2022-07-11T01:49:32;3.73;;;3.63;;
2225;SDS011;1119;48.288;8.726;2022-07-11T01:51:59;3.80;;;3.60;;
2225;SDS011;1119;48.288;8.726;2022-07-11T01:54:27;3.50;;;3.40;;
2225;SDS011;1119;48.288;8.726;2022-07-11T01:56:54;4.57;;;4.17;;
2225;SDS011;1119;48.288;8.726;2022-07-11T01:59:22;3.80;;;3.70;;
2225;SDS011;1119;48.288;8.726;2022-07-11T02:01:49;4.43;;;4.13;;
2225;SDS011;1119;48.288;8.726;2022-07-11T02:04:18;4.37;;;4.07;;
2225;SDS011;1119;48.288;8.726;2022-07-11T02:06:45;5.43;;;5.00;;
2225;SDS011;1119;48.288;8.726;2022-07-11T02:09:12;4.10;;;3.90;;
2225;SDS011;1119;48.288;8.726;2022-07-11T02:11:40;3.90;;;3.70;;
2225;SDS011;1119;48.288;8.726;2022-07-11T02:14:07;4.07;;;3.87;;
2225;SDS011;1119;48.288;8.726;2022-07-11T02:16:35;4.10;;;3.80;;
2225;SDS011;1119;48.288;8.726;2022-07-11T02:19:03;4.30;;;4.00;;
2225;SDS011;1119;48.288;8.726;2022-07-11T02:21:31;4.17;;;3.67;;
2225;SDS011;1119;48.288;8.726;2022-07-11T02:23:58;5.00;;;4.47;;
2225;SDS011;1119;48.288;8.726;2022-07-11T02:26:26;4.47;;;4.17;;
2225;SDS011;1119;48.288;8.726;2022-07-11T02:28:53;3.43;;;3.23;;
2225;SDS011;1119;48.288;8.726;2022-07-11T02:31:20;3.50;;;3.40;;
2225;SDS011;1119;48.288;8.726;2022-07-11T02:33:48;3.87;;;3.60;;
2225;SDS011;1119;48.288;8.726;2022-07-11T02:36:15;4.30;;;4.10;;
2225;SDS011;1119;48.288;8.726;2022-07-11T02:38:42;3.77;;;3.60;;
2225;SDS011;1119;48.288;8.726;2022-07-11T02:41:10;3.40;;;3.20;;
2225;SDS011;1119;48.288;8.726;2022-07-11T02:43:37;3.33;;;3.23;;
2225;SDS011;1119;48.288;8.726;2022-07-11T02:46:04;5.17;;;4.87;;
2225;SDS011;1119;48.288;8.726;2022-07-11T02:48:32;3.87;;;3.57;;
2225;SDS011;1119;48.288;8.726;2022-07-11T02:51:00;4.97;;;4.20;;
2225;SDS011;1119;48.288;8.726;2022-07-11T02:53:27;4.50;;;4.10;;
2225;SDS011;1119;48.288;8.726;2022-07-11T02:55:54;4.33;;;4.13;;
2225;SDS011;1119;48.288;8.726;2022-07-11T02:58:21;3.57;;;3.47;;
2225;SDS011;1119;48.288;8.726;2022-07-11T03:00:48;4.50;;;4.00;;
2225;SDS011;1119;48.288;8.726;2022-07-11T03:03:16;3.87;;;3.67;;
2225;SDS011;1119;48.288;8.726;2022-07-11T03:05:43;4.37;;;4.00;;
2225;SDS011;1119;48.288;8.726;2022-07-11T03:08:12;3.70;;;3.40;;
2225;SDS011;1119;48.288;8.726;2022-07-11T03:10:39;4.13;;;3.80;;
2225;SDS011;1119;48.288;8.726;2022-07-11T03:13:06;3.47;;;3.37;;
2225;SDS011;1119;48.288;8.726;2022-07-11T03:15:33;4.13;;;3.53;;
2225;SDS011;1119;48.288;8.726;2022-07-11T03:18:00;3.73;;;3.60;;
2225;SDS011;1119;48.288;8.726;2022-07-11T03:20:27;5.67;;;4.67;;
2225;SDS011;1119;48.288;8.726;2022-07-11T03:22:54;4.40;;;4.20;;
2225;SDS011;1119;48.288;8.726;2022-07-11T03:25:23;5.17;;;4.70;;
2225;SDS011;1119;48.288;8.726;2022-07-11T03:27:50;5.23;;;3.97;;
2225;SDS011;1119;48.288;8.726;2022-07-11T03:30:17;4.07;;;3.67;;
2225;SDS011;1119;48.288;8.726;2022-07-11T03:32:44;4.23;;;4.00;;
2225;SDS011;1119;48.288;8.726;2022-07-11T03:35:11;4.47;;;4.20;;
2225;SDS011;1119;48.288;8.726;2022-07-11T03:37:56;4.53;;;4.13;;
2225;SDS011;1119;48.288;8.726;2022-07-11T03:40:25;4.30;;;4.00;;
2225;SDS011;1119;48.288;8.726;2022-07-11T03:42:52;6.97;;;4.17;;
2225;SDS011;1119;48.288;8.726;2022-07-11T03:45:19;4.20;;;3.90;;
2225;SDS011;1119;48.288;8.726;2022-07-11T03:47:46;4.40;;;4.07;;
2225;SDS011;1119;48.288;8.726;2022-07-11T03:50:13;3.97;;;3.77;;
2225;SDS011;1119;48.288;8.726;2022-07-11T03:52:41;4.30;;;4.10;;
2225;SDS011;1119;48.288;8.726;2022-07-11T03:55:09;4.10;;;3.90;;
2225;SDS011;1119;48.288;8.726;2022-07-11T03:57:37;8.50;;;5.00;;
2225;SDS011;1119;48.288;8.726;2022-07-11T04:00:05;4.70;;;4.40;;
2225;SDS011;1119;48.288;8.726;2022-07-11T04:02:34;4.30;;;4.00;;
2225;SDS011;1119;48.288;8.726;2022-07-11T04:05:01;4.10;;;3.80;;
2225;SDS011;1119;48.288;8.726;2022-07-11T04:07:29;3.90;;;3.80;;
2225;SDS011;1119;48.288;8.726;2022-07-11T04:09:56;4.10;;;3.80;;
2225;SDS011;1119;48.288;8.726;2022-07-11T04:12:24;4.70;;;4.43;;
2225;SDS011;1119;48.288;8.726;2022-07-11T04:14:52;4.60;;;4.30;;
2225;SDS011;1119;48.288;8.726;2022-07-11T04:17:19;3.73;;;3.53;;
2225;SDS011;1119;48.288;8.726;2022-07-11T04:19:46;7.80;;;7.30;;
2225;SDS011;1119;48.288;8.726;2022-07-11T04:22:13;5.07;;;4.77;;
2225;SDS011;1119;48.288;8.726;2022-07-11T04:24:40;4.23;;;3.97;;
2225;SDS011;1119;48.288;8.726;2022-07-11T04:27:07;4.40;;;4.20;;
2225;SDS011;1119;48.288;8.726;2022-07-11T04:29:35;4.40;;;4.20;;
2225;SDS011;1119;48.288;8.726;2022-07-11T04:32:03;4.97;;;4.50;;
2225;SDS011;1119;48.288;8.726;2022-07-11T04:34:32;4.30;;;4.10;;
2225;SDS011;1119;48.288;8.726;2022-07-11T04:37:00;5.30;;;4.80;;
2225;SDS011;1119;48.288;8.726;2022-07-11T04:39:27;5.23;;;4.93;;
2225;SDS011;1119;48.288;8.726;2022-07-11T04:41:54;4.90;;;4.63;;
2225;SDS011;1119;48.288;8.726;2022-07-11T04:44:21;4.47;;;4.27;;
2225;SDS011;1119;48.288;8.726;2022-07-11T04:46:48;5.10;;;4.70;;
2225;SDS011;1119;48.288;8.726;2022-07-11T04:49:16;4.83;;;4.63;;
2225;SDS011;1119;48.288;8.726;2022-07-11T04:51:44;5.33;;;5.03;;
2225;SDS011;1119;48.288;8.726;2022-07-11T04:54:11;4.53;;;4.30;;
2225;SDS011;1119;48.288;8.726;2022-07-11T04:56:38;5.20;;;4.40;;
2225;SDS011;1119;48.288;8.726;2022-07-11T04:59:05;4.33;;;4.13;;
2225;SDS011;1119;48.288;8.726;2022-07-11T05:01:33;4.23;;;4.03;;
2225;SDS011;1119;48.288;8.726;2022-07-11T05:04:00;4.40;;;4.20;;
2225;SDS011;1119;48.288;8.726;2022-07-11T05:06:30;5.00;;;4.70;;
2225;SDS011;1119;48.288;8.726;2022-07-11T05:08:57;8.20;;;4.63;;
2225;SDS011;1119;48.288;8.726;2022-07-11T05:11:24;4.87;;;4.50;;
2225;SDS011;1119;48.288;8.726;2022-07-11T05:13:52;4.90;;;4.50;;
2225;SDS011;1119;48.288;8.726;2022-07-11T05:16:19;4.40;;;4.00;;
2225;SDS011;1119;48.288;8.726;2022-07-11T05:18:46;4.60;;;4.13;;
2225;SDS011;1119;48.288;8.726;2022-07-11T05:21:13;4.60;;;4.33;;
2225;SDS011;1119;48.288;8.726;2022-07-11T05:23:41;4.13;;;3.90;;
2225;SDS011;1119;48.288;8.726;2022-07-11T05:26:08;4.33;;;4.07;;
2225;SDS011;1119;48.288;8.726;2022-07-11T05:28:36;4.60;;;4.20;;
2225;SDS011;1119;48.288;8.726;2022-07-11T05:31:03;4.23;;;4.03;;
2225;SDS011;1119;48.288;8.726;2022-07-11T05:33:30;5.13;;;4.70;;
2225;SDS011;1119;48.288;8.726;2022-07-11T05:35:58;3.83;;;3.60;;
2225;SDS011;1119;48.288;8.726;2022-07-11T05:38:25;5.00;;;4.50;;
2225;SDS011;1119;48.288;8.726;2022-07-11T05:40:53;4.50;;;4.30;;
2225;SDS011;1119;48.288;8.726;2022-07-11T05:43:21;4.50;;;4.20;;
2225;SDS011;1119;48.288;8.726;2022-07-11T05:45:49;4.10;;;3.90;;
2225;SDS011;1119;48.288;8.726;2022-07-11T05:48:16;4.80;;;4.50;;
2225;SDS011;1119;48.288;8.726;2022-07-11T05:50:43;4.17;;;3.93;;
2225;SDS011;1119;48.288;8.726;2022-07-11T05:53:10;4.67;;;4.40;;
2225;SDS011;1119;48.288;8.726;2022-07-11T05:55:38;4.47;;;4.20;;
2225;SDS011;1119;48.288;8.726;2022-07-11T05:58:06;4.63;;;4.33;;
2225;SDS011;1119;48.288;8.726;2022-07-11T06:00:34;4.43;;;4.17;;
2225;SDS011;1119;48.288;8.726;2022-07-11T06:03:01;4.93;;;4.63;;
2225;SDS011;1119;48.288;8.726;2022-07-11T06:05:28;5.30;;;4.90;;
2225;SDS011;1119;48.288;8.726;2022-07-11T06:07:55;4.70;;;4.40;;
2225;SDS011;1119;48.288;8.726;2022-07-11T06:10:40;5.13;;;4.83;;
2225;SDS011;1119;48.288;8.726;2022-07-11T06:13:08;4.90;;;4.60;;
2225;SDS011;1119;48.288;8.726;2022-07-11T06:15:36;6.30;;;5.80;;
2225;SDS011;1119;48.288;8.726;2022-07-11T06:18:03;5.63;;;5.23;;
2225;SDS011;1119;48.288;8.726;2022-07-11T06:20:30;4.40;;;4.20;;
2225;SDS011;1119;48.288;8.726;2022-07-11T06:22:57;5.87;;;5.47;;
2225;SDS011;1119;48.288;8.726;2022-07-11T06:25:24;5.37;;;5.07;;
2225;SDS011;1119;48.288;8.726;2022-07-11T06:27:51;6.20;;;5.70;;
2225;SDS011;1119;48.288;8.726;2022-07-11T06:30:20;5.60;;;5.10;;
2225;SDS011;1119;48.288;8.726;2022-07-11T06:32:47;4.70;;;4.40;;
2225;SDS011;1119;48.288;8.726;2022-07-11T06:35:14;4.93;;;4.63;;
2225;SDS011;1119;48.288;8.726;2022-07-11T06:37:41;5.00;;;4.67;;
2225;SDS011;1119;48.288;8.726;2022-07-11T06:40:08;5.60;;;5.07;;
2225;SDS011;1119;48.288;8.726;2022-07-11T06:42:37;6.20;;;5.77;;
2225;SDS011;1119;48.288;8.726;2022-07-11T06:45:07;5.67;;;5.27;;
2225;SDS011;1119;48.288;8.726;2022-07-11T06:47:36;5.30;;;5.10;;
2225;SDS011;1119;48.288;8.726;2022-07-11T06:50:03;5.70;;;5.40;;
2225;SDS011;1119;48.288;8.726;2022-07-11T06:52:31;5.40;;;5.10;;
2225;SDS011;1119;48.288;8.726;2022-07-11T06:54:58;4.97;;;4.63;;
2225;SDS011;1119;48.288;8.726;2022-07-11T06:57:26;6.60;;;6.10;;
2225;SDS011;1119;48.288;8.726;2022-07-11T06:59:53;5.77;;;5.37;;
2225;SDS011;1119;48.288;8.726;2022-07-11T07:02:20;4.73;;;4.53;;
2225;SDS011;1119;48.288;8.726;2022-07-11T07:04:52;5.23;;;4.93;;
2225;SDS011;1119;48.288;8.726;2022-07-11T07:07:19;6.30;;;5.80;;
2225;SDS011;1119;48.288;8.726;2022-07-11T07:09:48;6.23;;;5.70;;
2225;SDS011;1119;48.288;8.726;2022-07-11T07:12:15;5.50;;;5.20;;
2225;SDS011;1119;48.288;8.726;2022-07-11T07:14:42;6.73;;;5.40;;
2225;SDS011;1119;48.288;8.726;2022-07-11T07:17:09;4.73;;;4.53;;
2225;SDS011;1119;48.288;8.726;2022-07-11T07:19:36;4.63;;;4.43;;
2225;SDS011;1119;48.288;8.726;2022-07-11T07:22:04;4.73;;;4.53;;
2225;SDS011;1119;48.288;8.726;2022-07-11T07:24:33;4.73;;;4.43;;
2225;SDS011;1119;48.288;8.726;2022-07-11T07:27:01;5.50;;;5.20;;
2225;SDS011;1119;48.288;8.726;2022-07-11T07:29:29;4.00;;;3.90;;
2225;SDS011;1119;48.288;8.726;2022-07-11T07:31:57;4.83;;;4.53;;
2225;SDS011;1119;48.288;8.726;2022-07-11T07:34:24;4.17;;;4.00;;
2225;SDS011;1119;48.288;8.726;2022-07-11T07:36:52;4.87;;;4.57;;
2225;SDS011;1119;48.288;8.726;2022-07-11T07:39:23;4.20;;;4.00;;
2225;SDS011;1119;48.288;8.726;2022-07-11T07:41:50;4.37;;;4.03;;
2225;SDS011;1119;48.288;8.726;2022-07-11T07:44:18;4.17;;;3.97;;
2225;SDS011;1119;48.288;8.726;2022-07-11T07:46:45;4.50;;;4.30;;
2225;SDS011;1119;48.288;8.726;2022-07-11T07:49:12;5.23;;;4.93;;
2225;SDS011;1119;48.288;8.726;2022-07-11T07:51:39;4.17;;;4.00;;
2225;SDS011;1119;48.288;8.726;2022-07-11T07:54:07;4.67;;;4.47;;
2225;SDS011;1119;48.288;8.726;2022-07-11T07:56:35;4.40;;;4.13;;
2225;SDS011;1119;48.288;8.726;2022-07-11T07:59:02;3.90;;;3.70;;
2225;SDS011;1119;48.288;8.726;2022-07-11T08:01:30;4.30;;;4.20;;
2225;SDS011;1119;48.288;8.726;2022-07-11T08:04:02;4.20;;;4.00;;
2225;SDS011;1119;48.288;8.726;2022-07-11T08:06:30;4.27;;;4.07;;
2225;SDS011;1119;48.288;8.726;2022-07-11T08:08:58;4.17;;;3.97;;
2225;SDS011;1119;48.288;8.726;2022-07-11T08:11:25;4.03;;;3.83;;
2225;SDS011;1119;48.288;8.726;2022-07-11T08:13:54;3.97;;;3.67;;
2225;SDS011;1119;48.288;8.726;2022-07-11T08:16:22;3.40;;;3.30;;
2225;SDS011;1119;48.288;8.726;2022-07-11T08:18:49;3.60;;;3.40;;
2225;SDS011;1119;48.288;8.726;2022-07-11T08:21:18;3.53;;;3.37;;
2225;SDS011;1119;48.288;8.726;2022-07-11T08:23:45;2.70;;;2.60;;
2225;SDS011;1119;48.288;8.726;2022-07-11T08:26:12;3.20;;;3.10;;
2225;SDS011;1119;48.288;8.726;2022-07-11T08:28:40;3.40;;;3.30;;
2225;SDS011;1119;48.288;8.726;2022-07-11T08:31:08;4.20;;;4.10;;
2225;SDS011;1119;48.288;8.726;2022-07-11T08:33:35;3.27;;;3.03;;
2225;SDS011;1119;48.288;8.726;2022-07-11T08:36:03;2.50;;;2.40;;
2225;SDS011;1119;48.288;8.726;2022-07-11T08:38:31;3.57;;;3.27;;
2225;SDS011;1119;48.288;8.726;2022-07-11T08:40:58;2.70;;;2.60;;
2225;SDS011;1119;48.288;8.726;2022-07-11T08:43:26;3.00;;;2.90;;
2225;SDS011;1119;48.288;8.726;2022-07-11T08:45:54;3.40;;;3.20;;
2225;SDS011;1119;48.288;8.726;2022-07-11T08:48:23;3.10;;;2.97;;
2225;SDS011;1119;48.288;8.726;2022-07-11T08:50:51;3.10;;;3.00;;
2225;SDS011;1119;48.288;8.726;2022-07-11T08:53:18;3.20;;;3.10;;
2225;SDS011;1119;48.288;8.726;2022-07-11T08:55:46;2.80;;;2.70;;
2225;SDS011;1119;48.288;8.726;2022-07-11T08:58:13;2.87;;;2.80;;
2225;SDS011;1119;48.288;8.726;2022-07-11T09:00:41;3.20;;;3.10;;
2225;SDS011;1119;48.288;8.726;2022-07-11T09:03:12;2.80;;;2.70;;
2225;SDS011;1119;48.288;8.726;2022-07-11T09:05:44;2.30;;;2.30;;
2225;SDS011;1119;48.288;8.726;2022-07-11T09:08:11;2.77;;;2.67;;
2225;SDS011;1119;48.288;8.726;2022-07-11T09:10:39;2.67;;;2.57;;
2225;SDS011;1119;48.288;8.726;2022-07-11T09:13:07;2.40;;;2.40;;
2225;SDS011;1119;48.288;8.726;2022-07-11T09:15:37;2.30;;;2.30;;
2225;SDS011;1119;48.288;8.726;2022-07-11T09:18:07;2.57;;;2.47;;
2225;SDS011;1119;48.288;8.726;2022-07-11T09:20:59;2.50;;;2.40;;
2225;SDS011;1119;48.288;8.726;2022-07-11T09:23:46;2.47;;;2.37;;
2225;SDS011;1119;48.288;8.726;2022-07-11T09:26:32;2.50;;;2.50;;
2225;SDS011;1119;48.288;8.726;2022-07-11T09:29:06;2.23;;;2.23;;
2225;SDS011;1119;48.288;8.726;2022-07-11T09:31:35;2.73;;;2.63;;
2225;SDS011;1119;48.288;8.726;2022-07-11T09:34:05;3.00;;;2.90;;
2225;SDS011;1119;48.288;8.726;2022-07-11T09:36:39;2.50;;;2.40;;
2225;SDS011;1119;48.288;8.726;2022-07-11T09:39:10;2.60;;;2.50;;
2225;SDS011;1119;48.288;8.726;2022-07-11T09:41:41;2.53;;;2.43;;
2225;SDS011;1119;48.288;8.726;2022-07-11T09:44:13;2.87;;;2.77;;
2225;SDS011;1119;48.288;8.726;2022-07-11T09:46:43;2.90;;;2.80;;
2225;SDS011;1119;48.288;8.726;2022-07-11T09:49:13;3.00;;;2.90;;
2225;SDS011;1119;48.288;8.726;2022-07-11T09:51:43;3.10;;;3.00;;
2225;SDS011;1119;48.288;8.726;2022-07-11T09:54:10;3.60;;;3.30;;
2225;SDS011;1119;48.288;8.726;2022-07-11T09:56:39;3.20;;;3.10;;
2225;SDS011;1119;48.288;8.726;2022-07-11T09:59:09;3.30;;;3.20;;
2225;SDS011;1119;48.288;8.726;2022-07-11T10:01:38;3.30;;;3.20;;
2225;SDS011;1119;48.288;8.726;2022-07-11T10:04:07;3.40;;;3.10;;
2225;SDS011;1119;48.288;8.726;2022-07-11T10:06:35;3.60;;;3.30;;
2225;SDS011;1119;48.288;8.726;2022-07-11T10:09:04;3.30;;;3.20;;
2225;SDS011;1119;48.288;8.726;2022-07-11T10:11:32;3.60;;;3.40;;
2225;SDS011;1119;48.288;8.726;2022-07-11T10:14:00;3.00;;;2.90;;
2225;SDS011;1119;48.288;8.726;2022-07-11T10:16:40;3.03;;;2.93;;
2225;SDS011;1119;48.288;8.726;2022-07-11T10:19:21;2.70;;;2.60;;
2225;SDS011;1119;48.288;8.726;2022-07-11T10:21:59;3.40;;;3.30;;
2225;SDS011;1119;48.288;8.726;2022-07-11T10:24:40;3.17;;;3.07;;
2225;SDS011;1119;48.288;8.726;2022-07-11T10:27:19;2.80;;;2.70;;
2225;SDS011;1119;48.288;8.726;2022-07-11T10:29:53;3.17;;;3.07;;
2225;SDS011;1119;48.288;8.726;2022-07-11T10:32:20;2.60;;;2.50;;
2225;SDS011;1119;48.288;8.726;2022-07-11T10:37:47;2.97;;;2.87;;
2225;SDS011;1119;48.288;8.726;2022-07-11T10:40:21;2.83;;;2.73;;
2225;SDS011;1119;48.288;8.726;2022-07-11T10:43:11;3.10;;;3.00;;
2225;SDS011;1119;48.288;8.726;2022-07-11T10:45:49;3.33;;;3.23;;
2225;SDS011;1119;48.288;8.726;2022-07-11T10:48:28;2.87;;;2.77;;
2225;SDS011;1119;48.288;8.726;2022-07-11T10:53:49;2.93;;;2.83;;
2225;SDS011;1119;48.288;8.726;2022-07-11T10:56:27;2.80;;;2.70;;
2225;SDS011;1119;48.288;8.726;2022-07-11T10:59:17;2.50;;;2.50;;
2225;SDS011;1119;48.288;8.726;2022-07-11T11:02:00;2.67;;;2.57;;
2225;SDS011;1119;48.288;8.726;2022-07-11T11:04:44;2.97;;;2.87;;
2225;SDS011;1119;48.288;8.726;2022-07-11T11:10:07;3.43;;;3.33;;
2225;SDS011;1119;48.288;8.726;2022-07-11T11:13:13;2.73;;;2.63;;
2225;SDS011;1119;48.288;8.726;2022-07-11T11:15:42;3.00;;;2.90;;
2225;SDS011;1119;48.288;8.726;2022-07-11T11:18:29;3.27;;;3.10;;
2225;SDS011;1119;48.288;8.726;2022-07-11T11:24:02;3.27;;;3.17;;
2225;SDS011;1119;48.288;8.726;2022-07-11T11:26:46;3.03;;;2.93;;
2225;SDS011;1119;48.288;8.726;2022-07-11T11:29:23;2.80;;;2.70;;
2225;SDS011;1119;48.288;8.726;2022-07-11T11:31:52;3.27;;;3.07;;
2225;SDS011;1119;48.288;8.726;2022-07-11T11:34:23;3.53;;;3.33;;
2225;SDS011;1119;48.288;8.726;2022-07-11T11:36:51;3.00;;;2.90;;
2225;SDS011;1119;48.288;8.726;2022-07-11T11:39:24;3.00;;;2.77;;
2225;SDS011;1119;48.288;8.726;2022-07-11T11:41:55;3.00;;;2.90;;
2225;SDS011;1119;48.288;8.726;2022-07-11T11:44:31;2.80;;;2.70;;
2225;SDS011;1119;48.288;8.726;2022-07-11T11:46:58;3.23;;;3.13;;
2225;SDS011;1119;48.288;8.726;2022-07-11T11:49:25;3.03;;;2.93;;
2225;SDS011;1119;48.288;8.726;2022-07-11T11:51:54;3.30;;;3.20;;
2225;SDS011;1119;48.288;8.726;2022-07-11T11:54:22;3.40;;;3.30;;
2225;SDS011;1119;48.288;8.726;2022-07-11T11:56:51;3.20;;;3.10;;
2225;SDS011;1119;48.288;8.726;2022-07-11T11:59:18;3.90;;;3.73;;
2225;SDS011;1119;48.288;8.726;2022-07-11T12:01:57;3.87;;;3.67;;
2225;SDS011;1119;48.288;8.726;2022-07-11T12:04:24;3.40;;;3.30;;
2225;SDS011;1119;48.288;8.726;2022-07-11T12:06:56;3.73;;;3.63;;
2225;SDS011;1119;48.288;8.726;2022-07-11T12:09:23;3.77;;;3.67;;
2225;SDS011;1119;48.288;8.726;2022-07-11T12:12:10;2.97;;;2.87;;
2225;SDS011;1119;48.288;8.726;2022-07-11T12:14:56;3.10;;;3.00;;
2225;SDS011;1119;48.288;8.726;2022-07-11T12:17:24;4.07;;;3.90;;
2225;SDS011;1119;48.288;8.726;2022-07-11T12:19:51;3.70;;;3.60;;
2225;SDS011;1119;48.288;8.726;2022-07-11T12:22:19;3.70;;;3.60;;
2225;SDS011;1119;48.288;8.726;2022-07-11T12:24:47;3.83;;;3.73;;
2225;SDS011;1119;48.288;8.726;2022-07-11T12:27:18;4.07;;;3.87;;
2225;SDS011;1119;48.288;8.726;2022-07-11T12:29:46;4.17;;;4.07;;
2225;SDS011;1119;48.288;8.726;2022-07-11T12:32:17;3.87;;;3.77;;
2225;SDS011;1119;48.288;8.726;2022-07-11T12:34:47;4.00;;;3.80;;
2225;SDS011;1119;48.288;8.726;2022-07-11T12:37:16;3.97;;;3.87;;
2225;SDS011;1119;48.288;8.726;2022-07-11T12:39:46;4.00;;;3.90;;
2225;SDS011;1119;48.288;8.726;2022-07-11T12:42:22;4.00;;;3.90;;
2225;SDS011;1119;48.288;8.726;2022-07-11T12:44:55;3.97;;;3.87;;
2225;SDS011;1119;48.288;8.726;2022-07-11T12:47:34;4.00;;;3.80;;
2225;SDS011;1119;48.288;8.726;2022-07-11T12:50:10;3.70;;;3.60;;
2225;SDS011;1119;48.288;8.726;2022-07-11T12:52:39;4.77;;;4.57;;
2225;SDS011;1119;48.288;8.726;2022-07-11T12:55:11;4.37;;;4.27;;
2225;SDS011;1119;48.288;8.726;2022-07-11T12:57:59;4.60;;;4.30;;
2225;SDS011;1119;48.288;8.726;2022-07-11T13:00:40;4.20;;;4.00;;
2225;SDS011;1119;48.288;8.726;2022-07-11T13:03:28;4.50;;;4.30;;
2225;SDS011;1119;48.288;8.726;2022-07-11T13:05:56;3.97;;;3.83;;
2225;SDS011;1119;48.288;8.726;2022-07-11T13:08:27;4.30;;;4.10;;
2225;SDS011;1119;48.288;8.726;2022-07-11T13:11:11;4.17;;;4.07;;
2225;SDS011;1119;48.288;8.726;2022-07-11T13:13:39;4.20;;;4.10;;
2225;SDS011;1119;48.288;8.726;2022-07-11T13:16:07;3.90;;;3.80;;
2225;SDS011;1119;48.288;8.726;2022-07-11T13:18:36;4.40;;;4.00;;
2225;SDS011;1119;48.288;8.726;2022-07-11T13:21:03;3.80;;;3.70;;
2225;SDS011;1119;48.288;8.726;2022-07-11T13:23:31;4.33;;;3.93;;
2225;SDS011;1119;48.288;8.726;2022-07-11T13:25:59;3.83;;;3.63;;
2225;SDS011;1119;48.288;8.726;2022-07-11T13:28:26;3.67;;;3.57;;
2225;SDS011;1119;48.288;8.726;2022-07-11T13:30:54;4.17;;;4.03;;
2225;SDS011;1119;48.288;8.726;2022-07-11T13:33:22;3.50;;;3.40;;
2225;SDS011;1119;48.288;8.726;2022-07-11T13:35:51;3.70;;;3.60;;
2225;SDS011;1119;48.288;8.726;2022-07-11T13:38:19;3.40;;;3.30;;
2225;SDS011;1119;48.288;8.726;2022-07-11T13:40:46;3.33;;;3.23;;
2225;SDS011;1119;48.288;8.726;2022-07-11T13:43:13;4.90;;;4.60;;
2225;SDS011;1119;48.288;8.726;2022-07-11T13:45:41;4.23;;;4.03;;
2225;SDS011;1119;48.288;8.726;2022-07-11T13:48:09;3.43;;;3.33;;
2225;SDS011;1119;48.288;8.726;2022-07-11T13:50:37;3.90;;;3.80;;
2225;SDS011;1119;48.288;8.726;2022-07-11T13:53:05;4.10;;;4.00;;
2225;SDS011;1119;48.288;8.726;2022-07-11T13:55:32;4.23;;;3.30;;
2225;SDS011;1119;48.288;8.726;2022-07-11T13:58:00;3.90;;;3.80;;
2225;SDS011;1119;48.288;8.726;2022-07-11T14:00:28;4.50;;;4.30;;
2225;SDS011;1119;48.288;8.726;2022-07-11T14:02:57;3.27;;;3.17;;
2225;SDS011;1119;48.288;8.726;2022-07-11T14:05:24;3.60;;;3.50;;
2225;SDS011;1119;48.288;8.726;2022-07-11T14:07:51;4.10;;;3.97;;
2225;SDS011;1119;48.288;8.726;2022-07-11T14:10:20;3.53;;;3.43;;
2225;SDS011;1119;48.288;8.726;2022-07-11T14:12:49;4.47;;;4.20;;
2225;SDS011;1119;48.288;8.726;2022-07-11T14:15:16;3.70;;;3.60;;
2225;SDS011;1119;48.288;8.726;2022-07-11T14:17:44;8.30;;;4.67;;
2225;SDS011;1119;48.288;8.726;2022-07-11T14:20:11;3.67;;;3.57;;
2225;SDS011;1119;48.288;8.726;2022-07-11T14:22:39;3.80;;;3.70;;
2225;SDS011;1119;48.288;8.726;2022-07-11T14:25:06;4.63;;;3.87;;
2225;SDS011;1119;48.288;8.726;2022-07-11T14:27:36;3.23;;;3.13;;
2225;SDS011;1119;48.288;8.726;2022-07-11T14:30:05;3.73;;;3.63;;
2225;SDS011;1119;48.288;8.726;2022-07-11T14:32:33;4.70;;;3.30;;
2225;SDS011;1119;48.288;8.726;2022-07-11T14:35:01;2.87;;;2.77;;
2225;SDS011;1119;48.288;8.726;2022-07-11T14:37:28;4.10;;;3.90;;
2225;SDS011;1119;48.288;8.726;2022-07-11T14:39:55;3.57;;;3.40;;
2225;SDS011;1119;48.288;8.726;2022-07-11T14:42:22;3.33;;;3.23;;
2225;SDS011;1119;48.288;8.726;2022-07-11T14:44:51;3.57;;;3.47;;
2225;SDS011;1119;48.288;8.726;2022-07-11T14:47:18;3.50;;;3.40;;
2225;SDS011;1119;48.288;8.726;2022-07-11T14:49:45;3.47;;;3.37;;
2225;SDS011;1119;48.288;8.726;2022-07-11T14:52:12;3.27;;;3.07;;
2225;SDS011;1119;48.288;8.726;2022-07-11T14:54:39;3.33;;;3.23;;
2225;SDS011;1119;48.288;8.726;2022-07-11T14:57:06;3.50;;;3.40;;
2225;SDS011;1119;48.288;8.726;2022-07-11T14:59:34;3.20;;;3.10;;
2225;SDS011;1119;48.288;8.726;2022-07-11T15:02:02;3.50;;;3.40;;
2225;SDS011;1119;48.288;8.726;2022-07-11T15:04:30;4.10;;;3.90;;
2225;SDS011;1119;48.288;8.726;2022-07-11T15:06:57;3.30;;;3.20;;
2225;SDS011;1119;48.288;8.726;2022-07-11T15:09:41;4.37;;;4.17;;
2225;SDS011;1119;48.288;8.726;2022-07-11T15:12:26;4.03;;;3.73;;
2225;SDS011;1119;48.288;8.726;2022-07-11T15:14:54;4.13;;;3.93;;
2225;SDS011;1119;48.288;8.726;2022-07-11T15:17:24;3.30;;;3.20;;
2225;SDS011;1119;48.288;8.726;2022-07-11T15:19:51;3.40;;;3.30;;
2225;SDS011;1119;48.288;8.726;2022-07-11T15:22:19;3.87;;;3.77;;
2225;SDS011;1119;48.288;8.726;2022-07-11T15:24:47;3.93;;;3.73;;
2225;SDS011;1119;48.288;8.726;2022-07-11T15:27:15;3.83;;;3.63;;
2225;SDS011;1119;48.288;8.726;2022-07-11T15:29:42;3.70;;;3.60;;
2225;SDS011;1119;48.288;8.726;2022-07-11T15:32:09;4.10;;;3.80;;
2225;SDS011;1119;48.288;8.726;2022-07-11T15:34:38;3.63;;;3.53;;
2225;SDS011;1119;48.288;8.726;2022-07-11T15:37:05;4.00;;;3.90;;
2225;SDS011;1119;48.288;8.726;2022-07-11T15:39:32;3.63;;;3.53;;